createdAt,value
2023-02-11T00:00:00.724Z,9.10
2023-02-11T00:01:05.076Z,9.10
2023-02-11T00:02:00.677Z,9.10
2023-02-11T00:03:01.008Z,9.06
2023-02-11T00:04:01.346Z,9.06
2023-02-11T00:05:00.805Z,9.06
2023-02-11T00:06:02.035Z,9.06
2023-02-11T00:07:00.729Z,9.06
2023-02-11T00:08:00.680Z,9.09
2023-02-11T00:09:01.187Z,9.09
2023-02-11T00:10:00.702Z,9.09
2023-02-11T00:11:00.695Z,9.09
2023-02-11T00:12:00.690Z,9.09
2023-02-11T00:13:00.716Z,9.16
2023-02-11T00:14:01.984Z,9.16
2023-02-11T00:15:00.722Z,9.16
2023-02-11T00:16:05.348Z,9.16
2023-02-11T00:17:00.812Z,9.16
2023-02-11T00:18:00.744Z,9.19
2023-02-11T00:19:01.287Z,9.19
2023-02-11T00:20:00.825Z,9.19
2023-02-11T00:21:04.879Z,9.19
2023-02-11T00:22:00.682Z,9.19
2023-02-11T00:23:00.693Z,9.18
2023-02-11T00:24:00.782Z,9.18
2023-02-11T00:25:00.700Z,9.18
2023-02-11T00:26:00.715Z,9.18
2023-02-11T00:27:00.712Z,9.18
2023-02-11T00:28:00.727Z,9.21
2023-02-11T00:29:01.475Z,9.21
2023-02-11T00:30:00.692Z,9.21
2023-02-11T00:31:00.834Z,9.21
2023-02-11T00:32:00.735Z,9.21
2023-02-11T00:33:00.763Z,9.19
2023-02-11T00:34:00.787Z,9.19
2023-02-11T00:35:00.715Z,9.19
2023-02-11T00:36:04.759Z,9.19
2023-02-11T00:37:00.853Z,9.19
2023-02-11T00:38:00.686Z,9.21
2023-02-11T00:39:00.677Z,9.21
2023-02-11T00:40:01.387Z,9.21
2023-02-11T00:41:00.685Z,9.21
2023-02-11T00:42:00.706Z,9.21
2023-02-11T00:43:00.710Z,9.25
2023-02-11T00:44:01.339Z,9.25
2023-02-11T00:45:00.997Z,9.25
2023-02-11T00:46:00.738Z,9.25
2023-02-11T00:47:00.681Z,9.25
2023-02-11T00:48:00.668Z,9.24
2023-02-11T00:49:00.685Z,9.24
2023-02-11T00:50:01.086Z,9.24
2023-02-11T00:51:00.891Z,9.24
2023-02-11T00:52:00.692Z,9.24
2023-02-11T00:53:00.714Z,9.25
2023-02-11T00:54:00.672Z,9.25
2023-02-11T00:55:00.719Z,9.25
2023-02-11T00:56:01.187Z,9.25
2023-02-11T00:57:00.709Z,9.25
2023-02-11T00:58:00.687Z,9.26
2023-02-11T00:59:00.726Z,9.26
2023-02-11T01:00:00.762Z,9.26
2023-02-11T01:01:00.886Z,9.26
2023-02-11T01:02:00.722Z,9.26
2023-02-11T01:03:00.686Z,9.23
2023-02-11T01:04:00.717Z,9.23
2023-02-11T01:05:00.744Z,9.23
2023-02-11T01:06:00.923Z,9.23
2023-02-11T01:07:00.688Z,9.23
2023-02-11T01:08:00.692Z,9.28
2023-02-11T01:09:00.682Z,9.28
2023-02-11T01:10:00.699Z,9.28
2023-02-11T01:11:02.620Z,9.28
2023-02-11T01:12:00.693Z,9.28
2023-02-11T01:13:00.702Z,9.26
2023-02-11T01:14:00.693Z,9.26
2023-02-11T01:15:00.987Z,9.26
2023-02-11T01:16:01.032Z,9.26
2023-02-11T01:17:00.679Z,9.26
2023-02-11T01:18:01.076Z,9.26
2023-02-11T01:19:00.691Z,9.26
2023-02-11T01:20:03.090Z,9.26
2023-02-11T01:21:00.671Z,9.26
2023-02-11T01:22:00.838Z,9.26
2023-02-11T01:23:00.742Z,9.27
2023-02-11T01:24:00.678Z,9.27
2023-02-11T01:25:00.706Z,9.27
2023-02-11T01:26:00.697Z,9.27
2023-02-11T01:27:00.705Z,9.27
2023-02-11T01:28:00.750Z,9.24
2023-02-11T01:29:00.746Z,9.24
2023-02-11T01:30:01.243Z,9.24
2023-02-11T01:31:00.882Z,9.24
2023-02-11T01:32:00.747Z,9.24
2023-02-11T01:33:00.745Z,9.22
2023-02-11T01:34:00.703Z,9.22
2023-02-11T01:35:01.091Z,9.22
2023-02-11T01:36:01.349Z,9.22
2023-02-11T01:37:00.685Z,9.22
2023-02-11T01:38:00.687Z,9.18
2023-02-11T01:39:00.684Z,9.18
2023-02-11T01:40:01.608Z,9.18
2023-02-11T01:41:03.919Z,9.18
2023-02-11T01:42:00.933Z,9.18
2023-02-11T01:43:00.831Z,9.22
2023-02-11T01:44:10.596Z,9.22
2023-02-11T01:45:10.605Z,9.22
2023-02-11T01:46:04.222Z,9.22
2023-02-11T01:47:01.083Z,9.22
2023-02-11T01:48:00.682Z,9.19
2023-02-11T01:49:04.846Z,9.19
2023-02-11T01:50:01.186Z,9.19
2023-02-11T01:51:05.341Z,9.19
2023-02-11T01:52:02.547Z,9.19
2023-02-11T01:53:00.938Z,9.15
2023-02-11T01:54:01.629Z,9.15
2023-02-11T01:55:02.634Z,9.15
2023-02-11T01:56:01.819Z,9.15
2023-02-11T01:57:01.497Z,9.15
2023-02-11T01:58:03.809Z,9.13
2023-02-11T01:59:04.868Z,9.13
2023-02-11T02:00:10.252Z,9.13
2023-02-11T02:01:01.833Z,9.13
2023-02-11T02:02:04.680Z,9.13
2023-02-11T02:03:00.677Z,9.11
2023-02-11T02:04:02.106Z,9.11
2023-02-11T02:05:07.038Z,9.11
2023-02-11T02:06:04.965Z,9.11
2023-02-11T02:07:05.304Z,9.11
2023-02-11T02:08:08.686Z,9.12
2023-02-11T02:09:04.804Z,9.12
2023-02-11T02:10:03.444Z,9.12
2023-02-11T02:11:01.219Z,9.12
2023-02-11T02:12:00.694Z,9.12
2023-02-11T02:13:00.687Z,9.16
2023-02-11T02:14:00.770Z,9.16
2023-02-11T02:15:10.588Z,9.16
2023-02-11T02:16:00.739Z,9.16
2023-02-11T02:17:01.186Z,9.16
2023-02-11T02:18:01.693Z,9.18
2023-02-11T02:19:10.602Z,9.18
2023-02-11T02:20:08.158Z,9.18
2023-02-11T02:21:10.598Z,9.18
2023-02-11T02:22:08.002Z,9.18
2023-02-11T02:23:10.480Z,9.15
2023-02-11T02:24:12.587Z,9.15
2023-02-11T02:25:10.609Z,9.15
2023-02-11T02:26:08.136Z,9.15
2023-02-11T02:27:10.590Z,9.15
2023-02-11T02:28:08.195Z,9.13
2023-02-11T02:29:10.608Z,9.13
2023-02-11T02:30:01.684Z,9.13
2023-02-11T02:31:04.136Z,9.13
2023-02-11T02:32:10.593Z,9.13
2023-02-11T02:33:21.616Z,9.11
2023-02-11T02:34:05.352Z,9.11
2023-02-11T02:35:00.701Z,9.11
2023-02-11T02:36:01.788Z,9.11
2023-02-11T02:37:07.106Z,9.11
2023-02-11T02:38:03.064Z,9.16
2023-02-11T02:39:05.705Z,9.16
2023-02-11T02:40:03.438Z,9.16
2023-02-11T02:41:03.399Z,9.16
2023-02-11T02:42:00.900Z,9.16
2023-02-11T02:43:01.868Z,9.22
2023-02-11T02:44:01.353Z,9.22
2023-02-11T02:45:00.806Z,9.22
2023-02-11T02:46:10.687Z,9.22
2023-02-11T02:47:00.770Z,9.22
2023-02-11T02:48:00.688Z,9.19
2023-02-11T02:49:01.125Z,9.19
2023-02-11T02:50:00.987Z,9.19
2023-02-11T02:51:00.665Z,9.19
2023-02-11T02:52:01.698Z,9.19
2023-02-11T02:53:03.932Z,9.19
2023-02-11T02:54:10.582Z,9.19
2023-02-11T02:55:10.601Z,9.19
2023-02-11T02:56:07.462Z,9.19
2023-02-11T02:57:01.695Z,9.19
2023-02-11T02:58:10.616Z,9.21
2023-02-11T02:59:11.040Z,9.21
2023-02-11T03:00:10.618Z,9.21
2023-02-11T03:01:08.115Z,9.21
2023-02-11T03:02:03.935Z,9.21
2023-02-11T03:03:00.664Z,9.18
2023-02-11T03:04:10.610Z,9.18
2023-02-11T03:05:00.708Z,9.18
2023-02-11T03:06:04.812Z,9.18
2023-02-11T03:07:06.398Z,9.18
2023-02-11T03:08:04.301Z,9.17
2023-02-11T03:09:05.264Z,9.17
2023-02-11T03:10:03.942Z,9.17
2023-02-11T03:11:02.266Z,9.17
2023-02-11T03:12:01.557Z,9.17
2023-02-11T03:13:01.776Z,9.12
2023-02-11T03:14:01.196Z,9.12
2023-02-11T03:15:02.102Z,9.12
2023-02-11T03:16:07.211Z,9.12
2023-02-11T03:17:02.045Z,9.12
2023-02-11T03:18:02.459Z,9.12
2023-02-11T03:19:04.966Z,9.12
2023-02-11T03:20:01.948Z,9.12
2023-02-11T03:21:01.565Z,9.12
2023-02-11T03:22:02.130Z,9.12
2023-02-11T03:23:02.973Z,9.13
2023-02-11T03:24:03.440Z,9.13
2023-02-11T03:25:01.546Z,9.13
2023-02-11T03:26:04.140Z,9.13
2023-02-11T03:27:03.931Z,9.13
2023-02-11T03:28:08.106Z,9.10
2023-02-11T03:29:09.899Z,9.10
2023-02-11T03:30:08.658Z,9.10
2023-02-11T03:31:09.171Z,9.10
2023-02-11T03:32:04.006Z,9.10
2023-02-11T03:33:04.477Z,9.07
2023-02-11T03:34:00.659Z,9.07
2023-02-11T03:35:10.612Z,9.07
2023-02-11T03:36:05.490Z,9.07
2023-02-11T03:37:03.879Z,9.07
2023-02-11T03:38:05.910Z,9.05
2023-02-11T03:39:02.687Z,9.05
2023-02-11T03:40:03.972Z,9.05
2023-02-11T03:41:02.064Z,9.05
2023-02-11T03:42:01.930Z,9.05
2023-02-11T03:43:03.421Z,9.07
2023-02-11T03:44:01.394Z,9.07
2023-02-11T03:45:04.174Z,9.07
2023-02-11T03:46:02.062Z,9.07
2023-02-11T03:47:02.295Z,9.07
2023-02-11T03:48:03.295Z,9.05
2023-02-11T03:49:03.076Z,9.05
2023-02-11T03:50:01.960Z,9.05
2023-02-11T03:51:02.517Z,9.05
2023-02-11T03:52:02.145Z,9.05
2023-02-11T03:53:01.652Z,9.06
2023-02-11T03:54:02.417Z,9.06
2023-02-11T03:55:02.471Z,9.06
2023-02-11T03:56:02.874Z,9.06
2023-02-11T03:57:01.407Z,9.06
2023-02-11T03:58:00.712Z,9.09
2023-02-11T03:59:00.715Z,9.09
2023-02-11T04:00:00.769Z,9.09
2023-02-11T04:01:00.713Z,9.09
2023-02-11T04:02:00.696Z,9.09
2023-02-11T04:03:00.938Z,9.12
2023-02-11T04:04:00.692Z,9.12
2023-02-11T04:05:01.093Z,9.12
2023-02-11T04:06:00.919Z,9.12
2023-02-11T04:07:00.676Z,9.12
2023-02-11T04:08:00.827Z,9.13
2023-02-11T04:09:00.702Z,9.13
2023-02-11T04:10:00.758Z,9.13
2023-02-11T04:11:00.818Z,9.13
2023-02-11T04:12:00.756Z,9.13
2023-02-11T04:13:00.729Z,9.15
2023-02-11T04:14:00.682Z,9.15
2023-02-11T04:15:00.706Z,9.15
2023-02-11T04:16:00.803Z,9.15
2023-02-11T04:17:00.815Z,9.15
2023-02-11T04:18:00.686Z,9.16
2023-02-11T04:19:00.712Z,9.16
2023-02-11T04:20:00.830Z,9.16
2023-02-11T04:21:00.778Z,9.16
2023-02-11T04:22:01.074Z,9.16
2023-02-11T04:23:00.692Z,9.22
2023-02-11T04:24:00.691Z,9.22
2023-02-11T04:25:00.736Z,9.22
2023-02-11T04:26:00.717Z,9.22
2023-02-11T04:27:00.812Z,9.22
2023-02-11T04:28:00.850Z,9.20
2023-02-11T04:29:00.687Z,9.20
2023-02-11T04:30:00.787Z,9.20
2023-02-11T04:31:01.077Z,9.20
2023-02-11T04:32:00.749Z,9.20
2023-02-11T04:33:00.689Z,9.19
2023-02-11T04:34:00.710Z,9.19
2023-02-11T04:35:00.742Z,9.19
2023-02-11T04:36:00.716Z,9.19
2023-02-11T04:37:00.793Z,9.19
2023-02-11T04:38:00.721Z,9.22
2023-02-11T04:39:00.714Z,9.22
2023-02-11T04:40:00.746Z,9.22
2023-02-11T04:41:00.695Z,9.22
2023-02-11T04:42:00.711Z,9.22
2023-02-11T04:43:00.712Z,9.26
2023-02-11T04:44:00.690Z,9.26
2023-02-11T04:45:00.712Z,9.26
2023-02-11T04:46:00.749Z,9.26
2023-02-11T04:47:00.741Z,9.26
2023-02-11T04:48:01.665Z,9.25
2023-02-11T04:49:00.798Z,9.25
2023-02-11T04:50:00.712Z,9.25
2023-02-11T04:51:00.974Z,9.25
2023-02-11T04:52:00.690Z,9.25
2023-02-11T04:53:00.704Z,9.22
2023-02-11T04:54:00.709Z,9.22
2023-02-11T04:55:00.761Z,9.22
2023-02-11T04:56:00.682Z,9.22
2023-02-11T04:57:00.745Z,9.22
2023-02-11T04:58:00.695Z,9.19
2023-02-11T04:59:00.822Z,9.19
2023-02-11T05:00:00.776Z,9.19
2023-02-11T05:01:05.008Z,9.19
2023-02-11T05:02:00.687Z,9.19
2023-02-11T05:03:00.686Z,9.18
2023-02-11T05:04:00.732Z,9.18
2023-02-11T05:05:00.865Z,9.18
2023-02-11T05:06:00.923Z,9.18
2023-02-11T05:07:00.728Z,9.18
2023-02-11T05:08:00.708Z,9.21
2023-02-11T05:09:00.732Z,9.21
2023-02-11T05:10:00.705Z,9.21
2023-02-11T05:11:00.733Z,9.21
2023-02-11T05:12:00.686Z,9.21
2023-02-11T05:13:00.733Z,9.18
2023-02-11T05:14:00.678Z,9.18
2023-02-11T05:15:00.780Z,9.18
2023-02-11T05:16:00.678Z,9.18
2023-02-11T05:17:00.737Z,9.18
2023-02-11T05:18:00.724Z,9.18
2023-02-11T05:19:00.750Z,9.18
2023-02-11T05:20:00.705Z,9.18
2023-02-11T05:21:04.391Z,9.18
2023-02-11T05:22:03.414Z,9.18
2023-02-11T05:23:00.670Z,9.17
2023-02-11T05:24:00.692Z,9.17
2023-02-11T05:25:00.729Z,9.17
2023-02-11T05:26:00.829Z,9.17
2023-02-11T05:27:00.718Z,9.17
2023-02-11T05:28:00.774Z,9.17
2023-02-11T05:29:00.702Z,9.17
2023-02-11T05:30:00.751Z,9.17
2023-02-11T05:31:00.869Z,9.17
2023-02-11T05:32:00.700Z,9.17
2023-02-11T05:33:00.690Z,9.16
2023-02-11T05:34:00.699Z,9.16
2023-02-11T05:35:00.680Z,9.16
2023-02-11T05:36:01.871Z,9.16
2023-02-11T05:37:00.865Z,9.16
2023-02-11T05:38:00.718Z,9.18
2023-02-11T05:39:00.735Z,9.18
2023-02-11T05:40:00.706Z,9.18
2023-02-11T05:41:00.735Z,9.18
2023-02-11T05:42:00.737Z,9.18
2023-02-11T05:43:00.698Z,9.15
2023-02-11T05:44:00.725Z,9.15
2023-02-11T05:45:00.757Z,9.15
2023-02-11T05:46:00.926Z,9.15
2023-02-11T05:47:00.765Z,9.15
2023-02-11T05:48:00.692Z,9.15
2023-02-11T05:49:00.730Z,9.15
2023-02-11T05:50:00.697Z,9.15
2023-02-11T05:51:00.705Z,9.15
2023-02-11T05:52:00.759Z,9.15
2023-02-11T05:53:00.759Z,9.12
2023-02-11T05:54:00.701Z,9.12
2023-02-11T05:55:00.699Z,9.12
2023-02-11T05:56:01.147Z,9.12
2023-02-11T05:57:00.682Z,9.12
2023-02-11T05:58:00.798Z,9.03
2023-02-11T05:59:00.688Z,9.03
2023-02-11T06:00:00.790Z,9.03
2023-02-11T06:01:00.675Z,9.03
2023-02-11T06:02:00.673Z,9.03
2023-02-11T06:03:00.934Z,9.01
2023-02-11T06:04:00.829Z,9.01
2023-02-11T06:05:00.807Z,9.01
2023-02-11T06:06:00.681Z,9.01
2023-02-11T06:07:00.710Z,9.01
2023-02-11T06:08:00.938Z,9.05
2023-02-11T06:09:00.733Z,9.05
2023-02-11T06:10:00.806Z,9.05
2023-02-11T06:11:00.683Z,9.05
2023-02-11T06:12:00.714Z,9.05
2023-02-11T06:13:00.934Z,9.00
2023-02-11T06:14:00.908Z,9.00
2023-02-11T06:15:00.698Z,9.00
2023-02-11T06:16:01.419Z,9.00
2023-02-11T06:17:00.732Z,9.00
2023-02-11T06:18:00.744Z,9.03
2023-02-11T06:19:00.691Z,9.03
2023-02-11T06:20:00.684Z,9.03
2023-02-11T06:21:00.688Z,9.03
2023-02-11T06:22:00.708Z,9.03
2023-02-11T06:23:00.708Z,9.03
2023-02-11T06:24:00.806Z,9.03
2023-02-11T06:25:02.193Z,9.03
2023-02-11T06:26:01.931Z,9.03
2023-02-11T06:27:01.897Z,9.03
2023-02-11T06:28:00.728Z,8.99
2023-02-11T06:29:00.808Z,8.99
2023-02-11T06:30:00.687Z,8.99
2023-02-11T06:31:04.595Z,8.99
2023-02-11T06:32:00.796Z,8.99
2023-02-11T06:33:00.739Z,9.00
2023-02-11T06:34:00.684Z,9.00
2023-02-11T06:35:00.854Z,9.00
2023-02-11T06:36:00.859Z,9.00
2023-02-11T06:37:00.726Z,9.00
2023-02-11T06:38:00.859Z,9.01
2023-02-11T06:39:00.704Z,9.01
2023-02-11T06:40:00.919Z,9.01
2023-02-11T06:41:00.689Z,9.01
2023-02-11T06:42:00.680Z,9.01
2023-02-11T06:43:00.712Z,9.00
2023-02-11T06:44:00.716Z,9.00
2023-02-11T06:45:00.707Z,9.00
2023-02-11T06:46:00.688Z,9.00
2023-02-11T06:47:00.691Z,9.00
2023-02-11T06:48:00.673Z,9.01
2023-02-11T06:49:00.691Z,9.01
2023-02-11T06:50:00.695Z,9.01
2023-02-11T06:51:07.354Z,9.01
2023-02-11T06:52:00.681Z,9.01
2023-02-11T06:53:00.849Z,9.02
2023-02-11T06:54:00.683Z,9.02
2023-02-11T06:55:00.795Z,9.02
2023-02-11T06:56:01.523Z,9.02
2023-02-11T06:57:00.687Z,9.02
2023-02-11T06:58:00.702Z,9.01
2023-02-11T06:59:00.745Z,9.01
2023-02-11T07:00:00.739Z,9.01
2023-02-11T07:01:03.554Z,9.01
2023-02-11T07:02:00.753Z,9.01
2023-02-11T07:03:00.766Z,9.02
2023-02-11T07:04:00.693Z,9.02
2023-02-11T07:05:00.850Z,9.02
2023-02-11T07:06:01.330Z,9.02
2023-02-11T07:07:00.683Z,9.02
2023-02-11T07:08:00.709Z,8.93
2023-02-11T07:09:00.687Z,8.93
2023-02-11T07:10:00.789Z,8.93
2023-02-11T07:11:00.734Z,8.93
2023-02-11T07:12:00.676Z,8.93
2023-02-11T07:13:00.729Z,8.78
2023-02-11T07:14:02.131Z,8.78
2023-02-11T07:15:01.005Z,8.78
2023-02-11T07:16:03.173Z,8.78
2023-02-11T07:17:00.750Z,8.78
2023-02-11T07:18:00.715Z,8.75
2023-02-11T07:19:00.748Z,8.75
2023-02-11T07:20:00.714Z,8.75
2023-02-11T07:21:04.735Z,8.75
2023-02-11T07:22:00.690Z,8.75
2023-02-11T07:23:00.694Z,8.75
2023-02-11T07:24:00.814Z,8.75
2023-02-11T07:25:00.714Z,8.75
2023-02-11T07:26:04.433Z,8.75
2023-02-11T07:27:00.702Z,8.75
2023-02-11T07:28:00.742Z,8.77
2023-02-11T07:29:01.218Z,8.77
2023-02-11T07:30:00.745Z,8.77
2023-02-11T07:31:08.200Z,8.77
2023-02-11T07:32:00.741Z,8.77
2023-02-11T07:33:00.726Z,8.71
2023-02-11T07:34:00.888Z,8.71
2023-02-11T07:35:00.817Z,8.71
2023-02-11T07:36:00.968Z,8.71
2023-02-11T07:37:00.693Z,8.71
2023-02-11T07:38:00.688Z,8.92
2023-02-11T07:39:00.692Z,8.92
2023-02-11T07:40:00.751Z,8.92
2023-02-11T07:41:01.310Z,8.92
2023-02-11T07:42:00.714Z,8.92
2023-02-11T07:43:00.682Z,8.94
2023-02-11T07:44:01.884Z,8.94
2023-02-11T07:45:00.755Z,8.94
2023-02-11T07:46:02.561Z,8.94
2023-02-11T07:47:00.777Z,8.94
2023-02-11T07:48:00.713Z,8.98
2023-02-11T07:49:00.728Z,8.98
2023-02-11T07:50:00.700Z,8.98
2023-02-11T07:51:06.514Z,8.98
2023-02-11T07:52:00.739Z,8.98
2023-02-11T07:53:01.306Z,9.01
2023-02-11T07:54:00.846Z,9.01
2023-02-11T07:55:02.671Z,9.01
2023-02-11T07:56:01.820Z,9.01
2023-02-11T07:57:00.709Z,9.01
2023-02-11T07:58:00.705Z,9.02
2023-02-11T07:59:01.690Z,9.02
2023-02-11T08:00:01.021Z,9.02
2023-02-11T08:01:02.338Z,9.02
2023-02-11T08:02:00.796Z,9.02
2023-02-11T08:03:00.708Z,9.05
2023-02-11T08:04:01.195Z,9.05
2023-02-11T08:05:00.717Z,9.05
2023-02-11T08:06:04.618Z,9.05
2023-02-11T08:07:00.740Z,9.05
2023-02-11T08:08:00.713Z,9.12
2023-02-11T08:09:04.867Z,9.12
2023-02-11T08:10:00.686Z,9.12
2023-02-11T08:11:08.914Z,9.12
2023-02-11T08:12:00.689Z,9.12
2023-02-11T08:13:00.720Z,9.12
2023-02-11T08:14:00.988Z,9.12
2023-02-11T08:15:00.699Z,9.12
2023-02-11T08:16:01.154Z,9.12
2023-02-11T08:17:00.734Z,9.12
2023-02-11T08:18:00.748Z,9.19
2023-02-11T08:19:02.209Z,9.19
2023-02-11T08:20:00.712Z,9.19
2023-02-11T08:21:04.840Z,9.19
2023-02-11T08:22:00.784Z,9.19
2023-02-11T08:23:00.696Z,9.23
2023-02-11T08:24:01.323Z,9.23
2023-02-11T08:25:00.734Z,9.23
2023-02-11T08:26:02.483Z,9.23
2023-02-11T08:27:00.717Z,9.23
2023-02-11T08:28:00.735Z,9.25
2023-02-11T08:29:02.135Z,9.25
2023-02-11T08:30:00.728Z,9.25
2023-02-11T08:31:04.345Z,9.25
2023-02-11T08:32:01.903Z,9.25
2023-02-11T08:33:00.896Z,9.26
2023-02-11T08:34:00.789Z,9.26
2023-02-11T08:35:00.697Z,9.26
2023-02-11T08:36:01.149Z,9.26
2023-02-11T08:37:00.691Z,9.26
2023-02-11T08:38:00.692Z,9.33
2023-02-11T08:39:17.526Z,9.33
2023-02-11T08:40:00.705Z,9.33
2023-02-11T08:41:00.700Z,9.33
2023-02-11T08:42:00.700Z,9.33
2023-02-11T08:43:00.667Z,9.37
2023-02-11T08:44:00.706Z,9.37
2023-02-11T08:45:00.710Z,9.37
2023-02-11T08:46:02.255Z,9.37
2023-02-11T08:47:00.720Z,9.37
2023-02-11T08:48:00.690Z,9.37
2023-02-11T08:49:00.700Z,9.37
2023-02-11T08:50:00.860Z,9.37
2023-02-11T08:51:04.618Z,9.37
2023-02-11T08:52:00.739Z,9.37
2023-02-11T08:53:00.687Z,9.39
2023-02-11T08:54:00.977Z,9.39
2023-02-11T08:55:00.674Z,9.39
2023-02-11T08:56:00.914Z,9.39
2023-02-11T08:57:00.719Z,9.39
2023-02-11T08:58:00.686Z,9.41
2023-02-11T08:59:00.672Z,9.41
2023-02-11T09:00:00.745Z,9.41
2023-02-11T09:01:00.739Z,9.41
2023-02-11T09:02:00.781Z,9.41
2023-02-11T09:03:00.687Z,9.44
2023-02-11T09:04:00.819Z,9.44
2023-02-11T09:05:00.709Z,9.44
2023-02-11T09:06:03.250Z,9.44
2023-02-11T09:07:00.674Z,9.44
2023-02-11T09:08:00.694Z,9.49
2023-02-11T09:09:00.933Z,9.49
2023-02-11T09:10:00.685Z,9.49
2023-02-11T09:11:00.870Z,9.49
2023-02-11T09:12:00.682Z,9.49
2023-02-11T09:13:00.750Z,9.58
2023-02-11T09:14:01.366Z,9.58
2023-02-11T09:15:00.811Z,9.58
2023-02-11T09:16:02.367Z,9.58
2023-02-11T09:17:00.760Z,9.58
2023-02-11T09:18:01.145Z,9.61
2023-02-11T09:19:01.303Z,9.61
2023-02-11T09:20:00.750Z,9.61
2023-02-11T09:21:01.737Z,9.61
2023-02-11T09:22:00.777Z,9.61
2023-02-11T09:23:00.682Z,9.58
2023-02-11T09:24:00.783Z,9.58
2023-02-11T09:25:00.678Z,9.58
2023-02-11T09:26:09.478Z,9.58
2023-02-11T09:27:00.706Z,9.58
2023-02-11T09:28:00.806Z,9.59
2023-02-11T09:29:01.000Z,9.59
2023-02-11T09:30:00.702Z,9.59
2023-02-11T09:31:04.985Z,9.59
2023-02-11T09:32:00.866Z,9.59
2023-02-11T09:33:00.725Z,9.66
2023-02-11T09:34:02.449Z,9.66
2023-02-11T09:35:01.062Z,9.66
2023-02-11T09:36:01.251Z,9.66
2023-02-11T09:37:00.702Z,9.66
2023-02-11T09:38:00.762Z,9.78
2023-02-11T09:39:01.030Z,9.78
2023-02-11T09:40:00.722Z,9.78
2023-02-11T09:41:01.414Z,9.78
2023-02-11T09:42:07.169Z,9.78
2023-02-11T09:43:04.924Z,9.89
2023-02-11T09:44:02.499Z,9.89
2023-02-11T09:45:02.443Z,9.89
2023-02-11T09:46:00.921Z,9.89
2023-02-11T09:47:03.913Z,9.89
2023-02-11T09:48:06.164Z,9.94
2023-02-11T09:49:01.636Z,9.94
2023-02-11T09:50:06.163Z,9.94
2023-02-11T09:51:02.247Z,9.94
2023-02-11T09:52:04.007Z,9.94
2023-02-11T09:53:02.784Z,10.07
2023-02-11T09:54:05.613Z,10.07
2023-02-11T09:55:03.911Z,10.07
2023-02-11T09:56:03.919Z,10.07
2023-02-11T09:57:00.822Z,10.07
2023-02-11T09:58:02.409Z,10.14
2023-02-11T09:59:00.830Z,10.14
2023-02-11T10:00:02.504Z,10.14
2023-02-11T10:01:07.471Z,10.14
2023-02-11T10:02:05.137Z,10.14
2023-02-11T10:03:10.599Z,10.26
2023-02-11T10:04:10.688Z,10.26
2023-02-11T10:05:10.611Z,10.26
2023-02-11T10:06:00.676Z,10.26
2023-02-11T10:07:06.510Z,10.26
2023-02-11T10:08:00.661Z,10.33
2023-02-11T10:09:06.746Z,10.33
2023-02-11T10:10:10.590Z,10.33
2023-02-11T10:11:07.225Z,10.33
2023-02-11T10:12:10.356Z,10.33
2023-02-11T10:13:01.688Z,10.36
2023-02-11T10:14:01.715Z,10.36
2023-02-11T10:15:03.945Z,10.36
2023-02-11T10:16:00.760Z,10.36
2023-02-11T10:17:10.245Z,10.36
2023-02-11T10:18:10.596Z,10.47
2023-02-11T10:19:08.541Z,10.47
2023-02-11T10:20:10.589Z,10.47
2023-02-11T10:21:06.899Z,10.47
2023-02-11T10:22:03.974Z,10.47
2023-02-11T10:23:07.419Z,10.49
2023-02-11T10:24:03.495Z,10.49
2023-02-11T10:25:10.579Z,10.49
2023-02-11T10:26:01.223Z,10.49
2023-02-11T10:27:05.560Z,10.49
2023-02-11T10:28:08.999Z,10.50
2023-02-11T10:29:04.615Z,10.50
2023-02-11T10:30:05.545Z,10.50
2023-02-11T10:31:02.540Z,10.50
2023-02-11T10:32:03.171Z,10.50
2023-02-11T10:33:00.819Z,10.53
2023-02-11T10:34:04.026Z,10.53
2023-02-11T10:35:02.798Z,10.53
2023-02-11T10:36:00.697Z,10.53
2023-02-11T10:37:00.709Z,10.53
2023-02-11T10:38:00.731Z,10.59
2023-02-11T10:39:08.514Z,10.59
2023-02-11T10:40:00.698Z,10.59
2023-02-11T10:41:00.708Z,10.59
2023-02-11T10:42:03.959Z,10.59
2023-02-11T10:43:03.120Z,10.60
2023-02-11T10:44:00.793Z,10.60
2023-02-11T10:45:03.174Z,10.60
2023-02-11T10:46:02.030Z,10.60
2023-02-11T10:47:04.117Z,10.60
2023-02-11T10:48:02.346Z,10.66
2023-02-11T10:49:00.800Z,10.66
2023-02-11T10:50:10.596Z,10.66
2023-02-11T10:51:08.090Z,10.66
2023-02-11T10:52:10.593Z,10.66
2023-02-11T10:53:12.011Z,10.66
2023-02-11T10:54:03.992Z,10.66
2023-02-11T10:55:04.082Z,10.66
2023-02-11T10:56:01.594Z,10.66
2023-02-11T10:57:00.705Z,10.66
2023-02-11T10:58:01.780Z,10.71
2023-02-11T10:59:03.782Z,10.71
2023-02-11T11:00:05.333Z,10.71
2023-02-11T11:01:00.774Z,10.71
2023-02-11T11:02:03.625Z,10.71
2023-02-11T11:03:01.492Z,10.74
2023-02-11T11:04:00.718Z,10.74
2023-02-11T11:05:03.775Z,10.74
2023-02-11T11:06:02.950Z,10.74
2023-02-11T11:07:10.622Z,10.74
2023-02-11T11:08:03.478Z,10.85
2023-02-11T11:09:00.697Z,10.85
2023-02-11T11:10:01.689Z,10.85
2023-02-11T11:11:03.301Z,10.85
2023-02-11T11:12:00.682Z,10.85
2023-02-11T11:13:00.835Z,10.89
2023-02-11T11:14:00.794Z,10.89
2023-02-11T11:15:00.690Z,10.89
2023-02-11T11:16:10.748Z,10.89
2023-02-11T11:17:00.701Z,10.89
2023-02-11T11:18:20.880Z,10.88
2023-02-11T11:19:03.939Z,10.88
2023-02-11T11:20:10.608Z,10.88
2023-02-11T11:21:02.317Z,10.88
2023-02-11T11:22:00.694Z,10.88
2023-02-11T11:23:10.635Z,11.00
2023-02-11T11:24:01.804Z,11.00
2023-02-11T11:25:00.886Z,11.00
2023-02-11T11:26:02.943Z,11.00
2023-02-11T11:27:02.033Z,11.00
2023-02-11T11:28:00.821Z,10.94
2023-02-11T11:29:06.662Z,10.94
2023-02-11T11:30:00.844Z,10.94
2023-02-11T11:31:01.356Z,10.94
2023-02-11T11:32:02.443Z,10.94
2023-02-11T11:33:00.832Z,10.95
2023-02-11T11:34:10.618Z,10.95
2023-02-11T11:35:02.112Z,10.95
2023-02-11T11:36:00.697Z,10.95
2023-02-11T11:37:08.625Z,10.95
2023-02-11T11:38:02.226Z,11.03
2023-02-11T11:39:02.191Z,11.03
2023-02-11T11:40:10.625Z,11.03
2023-02-11T11:41:10.596Z,11.03
2023-02-11T11:42:02.510Z,11.03
2023-02-11T11:43:03.963Z,11.06
2023-02-11T11:44:02.288Z,11.06
2023-02-11T11:45:03.121Z,11.06
2023-02-11T11:46:00.687Z,11.06
2023-02-11T11:47:10.601Z,11.06
2023-02-11T11:48:10.599Z,11.08
2023-02-11T11:49:10.610Z,11.08
2023-02-11T11:50:10.576Z,11.08
2023-02-11T11:51:03.244Z,11.08
2023-02-11T11:52:09.033Z,11.08
2023-02-11T11:53:06.433Z,11.07
2023-02-11T11:54:03.634Z,11.07
2023-02-11T11:55:10.594Z,11.07
2023-02-11T11:56:03.744Z,11.07
2023-02-11T11:57:09.306Z,11.07
2023-02-11T11:58:00.788Z,11.18
2023-02-11T11:59:01.792Z,11.18
2023-02-11T12:00:00.761Z,11.18
2023-02-11T12:01:04.009Z,11.18
2023-02-11T12:02:10.531Z,11.18
2023-02-11T12:03:00.753Z,11.18
2023-02-11T12:04:03.947Z,11.18
2023-02-11T12:05:10.613Z,11.18
2023-02-11T12:06:10.623Z,11.18
2023-02-11T12:07:10.633Z,11.18
2023-02-11T12:08:10.590Z,11.30
2023-02-11T12:09:06.549Z,11.30
2023-02-11T12:10:10.581Z,11.30
2023-02-11T12:11:06.251Z,11.30
2023-02-11T12:12:10.604Z,11.30
2023-02-11T12:13:01.706Z,11.37
2023-02-11T12:14:07.996Z,11.37
2023-02-11T12:15:10.385Z,11.37
2023-02-11T12:16:04.044Z,11.37
2023-02-11T12:17:07.170Z,11.37
2023-02-11T12:18:01.720Z,11.39
2023-02-11T12:19:03.933Z,11.39
2023-02-11T12:20:10.581Z,11.39
2023-02-11T12:21:10.593Z,11.39
2023-02-11T12:22:10.590Z,11.39
2023-02-11T12:23:10.603Z,11.42
2023-02-11T12:24:01.678Z,11.42
2023-02-11T12:25:10.577Z,11.42
2023-02-11T12:26:10.582Z,11.42
2023-02-11T12:27:04.044Z,11.42
2023-02-11T12:28:00.726Z,11.34
2023-02-11T12:29:04.002Z,11.34
2023-02-11T12:30:10.599Z,11.34
2023-02-11T12:31:12.236Z,11.34
2023-02-11T12:32:10.706Z,11.34
2023-02-11T12:33:10.590Z,11.34
2023-02-11T12:34:01.713Z,11.34
2023-02-11T12:35:09.880Z,11.34
2023-02-11T12:36:07.072Z,11.34
2023-02-11T12:37:02.840Z,11.34
2023-02-11T12:38:03.947Z,11.54
2023-02-11T12:39:08.153Z,11.54
2023-02-11T12:40:00.671Z,11.54
2023-02-11T12:41:10.604Z,11.54
2023-02-11T12:42:10.588Z,11.54
2023-02-11T12:43:10.599Z,11.52
2023-02-11T12:44:01.011Z,11.52
2023-02-11T12:45:08.207Z,11.52
2023-02-11T12:46:10.901Z,11.52
2023-02-11T12:47:10.593Z,11.52
2023-02-11T12:48:04.034Z,11.50
2023-02-11T12:49:07.792Z,11.50
2023-02-11T12:50:01.707Z,11.50
2023-02-11T12:51:08.329Z,11.50
2023-02-11T12:52:08.442Z,11.50
2023-02-11T12:53:01.716Z,11.58
2023-02-11T12:54:00.680Z,11.58
2023-02-11T12:55:03.290Z,11.58
2023-02-11T12:56:05.342Z,11.58
2023-02-11T12:57:05.319Z,11.58
2023-02-11T12:58:00.962Z,11.64
2023-02-11T12:59:01.874Z,11.64
2023-02-11T13:00:05.936Z,11.64
2023-02-11T13:01:03.887Z,11.64
2023-02-11T13:02:04.708Z,11.64
2023-02-11T13:03:10.594Z,11.64
2023-02-11T13:04:10.598Z,11.64
2023-02-11T13:05:04.787Z,11.64
2023-02-11T13:06:06.743Z,11.64
2023-02-11T13:07:04.662Z,11.64
2023-02-11T13:08:03.414Z,11.76
2023-02-11T13:09:02.906Z,11.76
2023-02-11T13:10:04.518Z,11.76
2023-02-11T13:11:03.424Z,11.76